Redwood City, CA (94065)

4:51 AM PST on February 12, 2016 (GMT -0800)
MorganHomes.com-Hallmark Park Area | | Change Station
CLOSE
Current Station
Personal Weather Station
Location: Belmont, CA
Elevation: 760 ft
Nearby Weather Stations

Elev 760 ft 37.52 °N, 122.26 °W | Updated 10 seconds ago

Partly Cloudy
Partly Cloudy
55.9 °F
Feels Like 55.9 °F
N
1.0
Wind Variable Wind from West
Gusts 1.0 mph

Today
High -- | Low -- °F
--% Chance of Precip.
Yesterday
High -- | Low -- °F
Precip. -- in
Pressure 30.20 in
Visibility 10.0 miles
Clouds Few 400 ft
Dew Point 56 °F
Humidity 100%
Rainfall 0.00 in
Snow Depth Not available.
7:02 AM 5:44 PM
Waxing Crescent, 20% visible
METAR KSQL 121235Z AUTO 00000KT 10SM FEW004 09/07 A3020 RMK AO2
Pressure 30.20 in
Visibility 10.0 miles
Clouds Few 400 ft
Dew Point 56 °F
Humidity 100%
Rainfall 0.00 in
Snow Depth Not available.
7:02 AM 5:44 PM
Waxing Crescent, 20% visible
METAR KSQL 121235Z AUTO 00000KT 10SM FEW004 09/07 A3020 RMK AO2

10-Day Weather Forecast

Almanac

Astronomy

Feb. 12, 2016 Rise Set
Actual Time
Civil Twilight
Nautical Twilight
Astronomical Twilight
Moon
Length of Visible Light
Length of Day
Tomorrow will be .
, % of the Moon is Illuminated

Today's Extremes

State Highs State Lows

Community

WunderPhotos

Upload Photos

1,892,300 photos uploaded!

WunderBlog® & News

Nearby

Air Quality

  Air Quality AQ Index Pollutant
Not available.

Snow Depth

Station Depth Elevation

Earthquake Activity

City Distance Mag. Time & Date
Minimum magnitude displayed is 2.5.

Coastal Water Temperatures

Place Temperature

Stations

Nearby Weather Stations

Station Location Temp. Windchill Dew Point Humidity Wind Precip. Elev Updated Type
                   

Watches & Warnings

There are currently no watches in effect.